Time;durP1;ratioP1;P1;durP2;ratioP2;P2;SDS_P1;SDS_P2;PMS_P1;PMS_P2;Temp;Humidity;BMP_temperature;BMP_pressure;BME280_temperature;BME280_humidity;BME280_pressure;Samples;Min_cycle;Max_cycle;Signal;HPM_P1;HPM_P2
2021/03/07 00:00:45;;;;;;;14.89;6.24;;;;;;;-3.54;68.19;99975.11;341532;112;2265899;-72
2021/03/07 00:01:50;;;;;;;13.49;6.72;;;;;;;-3.54;68.17;99975.11;348834;111;1962013;-72
2021/03/07 00:03:05;;;;;;;13.24;6.46;;;;;;;-3.53;67.90;99970.66;358429;111;1960646;-71
2021/03/07 00:04:11;;;;;;;11.29;5.85;;;;;;;-3.56;67.71;99965.61;366137;111;1962042;-71
2021/03/07 00:05:18;;;;;;;12.89;6.47;;;;;;;-3.55;67.99;99965.52;365283;109;1963063;-71
2021/03/07 00:06:25;;;;;;;13.45;7.66;;;;;;;-3.58;67.96;99960.42;364377;110;1964004;-71
2021/03/07 00:07:31;;;;;;;14.12;6.22;;;;;;;-3.58;67.96;99956.94;325207;111;2715872;-71
2021/03/07 00:08:40;;;;;;;16.78;8.44;;;;;;;-3.59;67.98;99953.47;361243;111;1962076;-72
2021/03/07 00:09:47;;;;;;;12.71;6.42;;;;;;;-3.59;68.08;99957.91;368106;106;1960621;-70
2021/03/07 00:10:52;;;;;;;15.12;7.50;;;;;;;-3.58;68.20;99954.30;368408;107;1962014;-70
2021/03/07 00:11:58;;;;;;;13.92;6.04;;;;;;;-3.56;68.09;99952.41;347222;107;2458967;-71
2021/03/07 00:13:03;;;;;;;13.39;5.94;;;;;;;-3.58;68.00;99944.58;349535;108;1962019;-70
2021/03/07 00:14:08;;;;;;;13.34;6.68;;;;;;;-3.57;68.14;99956.02;372034;106;1962997;-70
2021/03/07 00:15:15;;;;;;;16.34;7.83;;;;;;;-3.59;68.49;99956.11;373386;106;1962002;-70
2021/03/07 00:16:21;;;;;;;15.12;7.61;;;;;;;-3.58;68.31;99949.02;364129;108;1963946;-70
2021/03/07 00:17:27;;;;;;;15.92;6.94;;;;;;;-3.59;68.14;99942.91;367769;108;1960646;-70
2021/03/07 00:18:33;;;;;;;13.51;6.86;;;;;;;-3.56;68.28;99961.16;365223;108;1961056;-70
2021/03/07 00:19:39;;;;;;;12.29;6.44;;;;;;;-3.56;68.02;99945.33;332866;106;2199748;-70
2021/03/07 00:20:47;;;;;;;12.76;7.08;;;;;;;-3.56;67.95;99947.13;371453;108;1961929;-69
2021/03/07 00:21:52;;;;;;;12.91;5.93;;;;;;;-3.58;68.53;99949.86;348145;106;2496988;-70
2021/03/07 00:22:57;;;;;;;13.68;6.72;;;;;;;-3.54;68.15;99945.23;348993;108;1962029;-71
2021/03/07 00:24:03;;;;;;;14.58;7.11;;;;;;;-3.54;68.09;99945.23;376839;106;1960684;-71
2021/03/07 00:25:11;;;;;;;15.54;7.96;;;;;;;-3.56;68.30;99933.92;376073;105;1962046;-71
2021/03/07 00:26:18;;;;;;;12.67;6.58;;;;;;;-4.01;68.13;99872.88;369942;108;1962889;-71
2021/03/07 00:27:24;;;;;;;12.24;6.24;;;;;;;-3.60;68.39;99945.64;355418;108;2304959;-71
2021/03/07 00:28:29;;;;;;;12.81;6.58;;;;;;;-3.62;68.17;99929.09;358683;108;1962126;-71
2021/03/07 00:29:34;;;;;;;13.53;7.59;;;;;;;-3.65;68.43;99937.20;371091;108;1961929;-71
2021/03/07 00:30:41;;;;;;;13.20;5.96;;;;;;;-3.66;68.28;99935.52;372832;108;1962926;-70
2021/03/07 00:31:47;;;;;;;11.34;5.47;;;;;;;-3.65;68.47;99932.79;355893;106;1961940;-71
2021/03/07 00:32:53;;;;;;;13.50;6.58;;;;;;;-3.62;68.34;99935.20;372663;106;1960724;-71
2021/03/07 00:33:59;;;;;;;12.44;5.64;;;;;;;-3.64;68.63;99929.19;369675;107;1961988;-70
2021/03/07 00:35:06;;;;;;;13.38;6.12;;;;;;;-3.63;68.50;99922.94;345052;107;2497898;-70
2021/03/07 00:36:13;;;;;;;11.32;5.68;;;;;;;-3.64;68.37;99915.15;377217;107;1962965;-70
2021/03/07 00:37:18;;;;;;;14.30;6.10;;;;;;;-3.65;68.44;99913.44;366255;107;2205886;-71
2021/03/07 00:38:23;;;;;;;12.37;6.26;;;;;;;-3.67;68.41;99912.73;363025;105;1961935;-72
2021/03/07 00:39:30;;;;;;;12.97;5.87;;;;;;;-3.69;68.83;99911.98;371473;108;1961905;-71
2021/03/07 00:40:37;;;;;;;11.36;5.88;;;;;;;-3.68;68.93;99921.58;363398;111;1961921;-71
2021/03/07 00:41:43;;;;;;;14.34;6.08;;;;;;;-3.70;69.08;99912.95;375877;105;1961910;-71
2021/03/07 00:42:49;;;;;;;11.62;5.86;;;;;;;-3.70;68.51;99912.95;370579;106;1960662;-72
2021/03/07 00:43:54;;;;;;;13.77;6.93;;;;;;;-3.71;68.74;99912.08;337174;106;1993744;-72
2021/03/07 00:45:00;;;;;;;11.26;5.32;;;;;;;-3.73;68.79;99906.09;372551;108;1961939;-71
2021/03/07 00:46:06;;;;;;;11.41;5.46;;;;;;;-3.73;68.84;99895.53;371626;108;1961936;-71
2021/03/07 00:47:14;;;;;;;11.08;4.75;;;;;;;-3.74;68.88;99900.91;336918;108;2656933;-70
2021/03/07 00:48:20;;;;;;;9.63;4.78;;;;;;;-3.69;68.81;99893.51;374423;105;1962988;-71
2021/03/07 00:49:29;;;;;;;11.51;5.58;;;;;;;-3.69;68.87;99896.98;332292;109;2221766;-70
2021/03/07 00:50:35;;;;;;;13.10;5.47;;;;;;;-3.70;69.04;99887.39;332264;108;2203903;-70
2021/03/07 00:51:41;;;;;;;10.84;5.04;;;;;;;-3.71;68.74;99877.77;371186;106;1961956;-70
2021/03/07 00:52:46;;;;;;;12.42;5.36;;;;;;;-3.74;68.95;99879.79;374783;107;1961796;-70
2021/03/07 00:53:52;;;;;;;12.11;5.54;;;;;;;-3.73;68.95;99884.11;375339;107;1961991;-70
2021/03/07 00:54:57;;;;;;;13.07;6.52;;;;;;;-3.73;68.75;99884.11;337468;108;2662731;-70
2021/03/07 00:56:03;;;;;;;14.11;6.97;;;;;;;-3.72;69.02;99880.53;368883;107;1961903;-70
2021/03/07 00:57:08;;;;;;;10.40;5.23;;;;;;;-3.74;69.10;99875.35;373240;107;1961948;-71
2021/03/07 00:58:14;;;;;;;11.17;5.16;;;;;;;-3.73;69.17;99868.27;378060;105;1963918;-71
2021/03/07 00:59:21;;;;;;;12.03;5.09;;;;;;;-3.71;68.99;99876.93;347932;105;2509969;-72
2021/03/07 01:00:31;;;;;;;10.06;4.74;;;;;;;-3.66;68.89;99869.53;326197;107;2877041;-71
2021/03/07 01:01:36;;;;;;;10.91;5.51;;;;;;;-3.65;68.56;99871.20;374771;105;1961947;-72
2021/03/07 01:02:41;;;;;;;13.18;5.42;;;;;;;-3.66;68.64;99866.89;375273;105;1961866;-71
2021/03/07 01:03:47;;;;;;;15.74;5.18;;;;;;;-3.68;68.86;99869.63;361803;105;2283023;-72
2021/03/07 01:04:52;;;;;;;10.93;5.76;;;;;;;-3.68;68.67;99860.86;357058;106;1961944;-71
2021/03/07 01:05:58;;;;;;;13.53;6.02;;;;;;;-3.61;68.53;99856.84;376313;105;1963954;-72
2021/03/07 01:07:04;;;;;;;11.27;5.21;;;;;;;-3.62;68.69;99858.64;372770;106;1961951;-72
2021/03/07 01:08:09;;;;;;;11.67;5.03;;;;;;;-3.62;68.68;99853.36;338484;106;2654056;-70
2021/03/07 01:09:15;;;;;;;12.21;5.59;;;;;;;-3.59;68.58;99849.66;368429;107;1961907;-71
2021/03/07 01:10:33;;;;;;;9.88;4.47;;;;;;;-3.60;68.58;99838.26;346097;107;2570031;-71
2021/03/07 01:11:38;;;;;;;9.82;4.74;;;;;;;-3.58;68.51;99852.17;349084;105;1962894;-71
2021/03/07 01:12:45;;;;;;;9.68;4.98;;;;;;;-3.54;68.41;99834.33;374483;105;1961921;-70
2021/03/07 01:13:52;;;;;;;11.78;5.22;;;;;;;-3.51;68.18;99836.73;352759;105;2206932;-70
2021/03/07 01:14:57;;;;;;;11.40;5.37;;;;;;;-3.51;68.50;99833.26;371234;108;1962062;-70
2021/03/07 01:16:03;;;;;;;9.66;4.73;;;;;;;-3.51;68.38;99841.18;371803;106;1961930;-71
2021/03/07 01:17:09;;;;;;;9.58;4.88;;;;;;;-3.47;68.09;99832.90;334903;105;2762998;-70
2021/03/07 01:18:14;;;;;;;10.49;5.03;;;;;;;-3.47;68.19;99827.62;359597;106;1961974;-70
2021/03/07 01:19:20;;;;;;;9.29;4.74;;;;;;;-3.47;68.09;99824.98;377229;105;1961969;-71
2021/03/07 01:20:28;;;;;;;10.69;4.77;;;;;;;-3.45;68.16;99819.59;325342;106;2881046;-71
2021/03/07 01:21:33;;;;;;;10.07;4.54;;;;;;;-3.49;68.03;99811.06;371067;106;1962969;-70
2021/03/07 01:22:38;;;;;;;10.24;5.47;;;;;;;-3.51;68.45;99812.14;371464;106;1963964;-71
2021/03/07 01:23:44;;;;;;;9.99;4.39;;;;;;;-3.51;68.52;99820.89;372935;105;1961930;-69
2021/03/07 01:24:49;;;;;;;8.67;4.31;;;;;;;-3.50;68.71;99811.17;351457;106;2390119;-70
2021/03/07 01:25:55;;;;;;;11.98;5.20;;;;;;;-3.51;68.38;99817.42;356620;108;1961897;-71
2021/03/07 01:27:00;;;;;;;8.09;3.75;;;;;;;-3.51;68.50;99807.69;368085;107;1961915;-70
2021/03/07 01:28:08;;;;;;;10.87;5.37;;;;;;;-3.49;68.53;99812.84;370342;107;1963993;-70
2021/03/07 01:29:13;;;;;;;11.57;5.32;;;;;;;-3.51;68.64;99806.86;367850;106;1962026;-71
2021/03/07 01:30:22;;;;;;;9.14;4.88;;;;;;;-3.54;68.51;99810.56;371923;108;1961876;-72
2021/03/07 01:31:27;;;;;;;16.07;4.93;;;;;;;-3.54;68.85;99803.48;375255;104;1962028;-70
2021/03/07 01:32:33;;;;;;;9.66;4.96;;;;;;;-3.52;68.75;99824.47;379796;105;1962983;-71
2021/03/07 01:33:39;;;;;;;10.16;4.33;;;;;;;-3.60;68.84;99801.30;356654;105;2390749;-71
2021/03/07 01:34:44;;;;;;;10.90;4.75;;;;;;;-3.50;69.00;99816.45;360953;106;1960693;-70
2021/03/07 01:35:50;;;;;;;10.11;5.37;;;;;;;-3.47;68.89;99806.49;378345;106;1961950;-70
2021/03/07 01:36:56;;;;;;;9.88;4.36;;;;;;;-3.50;69.21;99803.25;379548;106;1963957;-71
2021/03/07 01:38:01;;;;;;;12.52;5.63;;;;;;;-3.48;68.77;99809.27;348181;105;2572973;-71
2021/03/07 01:39:07;;;;;;;9.64;3.88;;;;;;;-3.47;68.82;99790.65;362291;105;1962854;-71
2021/03/07 01:40:17;;;;;;;10.73;5.21;;;;;;;-3.44;68.69;99801.01;376309;105;1963047;-71
2021/03/07 01:41:31;;;;;;;11.64;4.57;;;;;;;-3.43;68.60;99800.05;377650;105;1962031;-70
2021/03/07 01:42:37;;;;;;;11.56;6.26;;;;;;;-3.45;68.66;99795.83;373932;106;1964005;-72
2021/03/07 01:43:42;;;;;;;10.54;5.09;;;;;;;-3.47;68.83;99809.13;372487;106;1964062;-72
2021/03/07 01:44:48;;;;;;;9.64;4.93;;;;;;;-3.47;68.92;99811.77;343336;106;2558873;-72
2021/03/07 01:45:54;;;;;;;8.79;3.79;;;;;;;-3.48;68.89;99791.62;367014;105;1969925;-71
2021/03/07 01:47:01;;;;;;;9.06;4.67;;;;;;;-3.47;68.87;99789.81;338439;109;2867893;-71
2021/03/07 01:48:09;;;;;;;10.04;5.28;;;;;;;-3.47;68.86;99789.81;365080;108;1962017;-71
2021/03/07 01:49:15;;;;;;;6.71;3.61;;;;;;;-3.46;68.95;99779.14;344792;111;2282951;-71
2021/03/07 01:50:24;;;;;;;9.69;4.25;;;;;;;-3.45;68.93;99795.83;362186;110;1961990;-70
2021/03/07 01:51:30;;;;;;;9.24;3.93;;;;;;;-3.43;68.83;99792.12;351274;111;1961907;-70
2021/03/07 01:52:35;;;;;;;10.22;4.08;;;;;;;-3.44;68.90;99787.80;358909;111;1961986;-71
2021/03/07 01:53:41;;;;;;;10.93;4.52;;;;;;;-3.45;68.90;99782.63;357808;112;1962025;-71
2021/03/07 01:54:46;;;;;;;7.66;3.68;;;;;;;-3.46;68.70;99783.59;346032;109;2224913;-71
2021/03/07 01:55:54;;;;;;;9.39;4.47;;;;;;;-3.46;68.90;99778.31;349505;111;1964967;-71
2021/03/07 01:57:02;;;;;;;6.23;3.61;;;;;;;-3.47;68.88;99773.97;339646;111;1961983;-71
2021/03/07 01:58:26;;;;;;;9.59;4.47;;;;;;;-3.45;68.98;99764.14;362315;109;1965023;-71
2021/03/07 01:59:33;;;;;;;8.38;3.53;;;;;;;-3.45;68.92;99774.70;361601;109;1962074;-71
2021/03/07 02:00:39;;;;;;;8.03;4.37;;;;;;;-3.41;68.61;99763.80;355176;109;1962971;-71
2021/03/07 02:01:46;;;;;;;8.96;3.79;;;;;;;-3.43;68.58;99767.52;363136;109;1961863;-72
2021/03/07 02:03:01;;;;;;;7.01;3.99;;;;;;;-3.44;68.95;99763.17;323405;109;2218973;-70
2021/03/07 02:04:06;;;;;;;10.42;4.33;;;;;;;-3.43;68.82;99773.63;332221;110;1961739;-70
2021/03/07 02:05:15;;;;;;;9.57;3.95;;;;;;;-3.45;69.02;99780.82;362380;110;1962020;-70
2021/03/07 02:06:21;;;;;;;7.43;3.84;;;;;;;-3.46;69.10;99780.95;364215;110;1962014;-71
2021/03/07 02:07:27;;;;;;;8.48;4.79;;;;;;;-3.41;68.90;99768.25;362026;111;1962919;-71
2021/03/07 02:08:37;;;;;;;7.83;3.57;;;;;;;-3.43;68.95;99764.87;332413;111;2554025;-70
2021/03/07 02:09:43;;;;;;;8.84;4.23;;;;;;;-3.47;68.88;99758.95;332728;113;2197003;-70
2021/03/07 02:10:52;;;;;;;8.71;4.15;;;;;;;-3.44;68.97;99765.81;357232;111;1961972;-71
2021/03/07 02:11:59;;;;;;;8.14;3.57;;;;;;;-3.47;69.06;99763.41;359107;111;1962967;-70
2021/03/07 02:13:11;;;;;;;9.26;4.48;;;;;;;-3.51;69.45;99754.05;356204;111;1961070;-71
2021/03/07 02:14:16;;;;;;;;;;;;;;;-3.51;69.08;99761.97;359220;111;1960855;-70
2021/03/07 02:15:24;;;;;;;10.28;4.12;;;;;;;-3.51;69.25;99769.89;357581;112;1963068;-71
2021/03/07 02:16:31;;;;;;;9.99;3.77;;;;;;;-3.48;69.13;99754.65;358015;113;1961734;-71
2021/03/07 02:17:38;;;;;;;9.37;4.05;;;;;;;-3.47;69.10;99750.20;357971;113;1962970;-71
2021/03/07 02:18:47;;;;;;;8.60;4.19;;;;;;;-3.49;69.35;99752.11;359330;111;1961066;-71
2021/03/07 02:19:53;;;;;;;10.44;4.76;;;;;;;-3.49;69.05;99758.25;350189;111;1962043;-71
2021/03/07 02:21:03;;;;;;;7.79;4.04;;;;;;;-3.50;69.16;99755.72;352897;114;1961964;-71
2021/03/07 02:22:12;;;;;;;9.26;4.05;;;;;;;-3.50;68.98;99742.52;355129;113;1961942;-70
2021/03/07 02:23:21;;;;;;;8.73;4.71;;;;;;;-3.50;69.22;99740.70;356129;111;1960970;-71
2021/03/07 02:24:28;;;;;;;10.41;4.97;;;;;;;-3.54;69.07;99741.91;358821;111;1963471;-71
2021/03/07 02:25:36;;;;;;;8.92;4.40;;;;;;;-3.56;69.29;99741.17;339716;113;1962019;-71
2021/03/07 02:26:50;;;;;;;8.84;4.42;;;;;;;-3.56;69.39;99744.66;333165;111;2858702;-72
2021/03/07 02:27:59;;;;;;;8.81;4.04;;;;;;;-3.53;69.30;99743.58;342128;113;2897940;-70
2021/03/07 02:29:07;;;;;;;8.78;4.53;;;;;;;-3.51;69.30;99738.20;356651;113;1963013;-71
2021/03/07 02:30:28;;;;;;;10.64;4.69;;;;;;;-3.54;69.42;99734.83;359440;111;1960718;-71
2021/03/07 02:31:38;;;;;;;11.84;4.50;;;;;;;-3.52;69.16;99721.48;363262;109;1963943;-71
2021/03/07 02:32:47;;;;;;;10.39;4.96;;;;;;;-3.52;69.17;99718.02;340664;109;2439882;-71
2021/03/07 02:33:56;;;;;;;9.01;4.08;;;;;;;-3.52;69.25;99724.13;346602;110;2332997;-71
2021/03/07 02:35:08;;;;;;;9.32;5.18;;;;;;;-3.55;69.21;99714.67;319801;113;2713025;-71
2021/03/07 02:36:18;;;;;;;10.75;4.32;;;;;;;-3.57;69.37;99718.37;356233;113;1960721;-71
2021/03/07 02:37:25;;;;;;;10.67;4.74;;;;;;;-3.55;69.47;99714.67;364910;110;1963065;-71
2021/03/07 02:38:34;;;;;;;8.81;4.24;;;;;;;-3.56;69.37;99712.97;329416;110;1972793;-71
2021/03/07 02:39:41;;;;;;;9.98;4.88;;;;;;;-3.52;69.16;99708.29;344065;108;2204965;-71
2021/03/07 02:40:49;;;;;;;10.16;4.44;;;;;;;-3.55;69.34;99717.31;365400;108;1961905;-70
2021/03/07 02:41:58;;;;;;;10.58;4.53;;;;;;;-3.57;69.35;99703.37;364051;109;1964858;-71
2021/03/07 02:43:07;;;;;;;9.79;4.96;;;;;;;-3.55;69.19;99701.47;357394;108;1963929;-71
2021/03/07 02:44:15;;;;;;;9.96;4.24;;;;;;;-3.56;69.20;99702.41;336747;110;1961983;-72
2021/03/07 02:45:22;;;;;;;9.04;4.13;;;;;;;-3.57;69.21;99705.18;355715;109;2205045;-70
2021/03/07 02:46:33;;;;;;;9.05;4.08;;;;;;;-3.54;69.15;99695.22;367029;110;1963930;-71
2021/03/07 02:47:43;;;;;;;9.67;3.93;;;;;;;-3.54;69.07;99697.86;340834;106;2886983;-71
2021/03/07 02:48:57;;;;;;;9.81;4.46;;;;;;;-3.55;69.15;99693.55;349294;111;2229985;-71
2021/03/07 02:50:12;;;;;;;8.48;4.16;;;;;;;-3.54;69.16;99694.38;345082;109;2379997;-70
2021/03/07 02:51:18;;;;;;;11.35;5.09;;;;;;;-3.51;68.99;99694.14;332952;109;1961928;-71
2021/03/07 02:52:24;;;;;;;10.03;4.79;;;;;;;-3.55;68.90;99690.91;365037;109;1962049;-71
2021/03/07 02:53:32;;;;;;;8.71;4.58;;;;;;;-3.54;68.92;99689.10;362885;109;1962139;-70
2021/03/07 02:54:39;;;;;;;11.16;4.96;;;;;;;-3.56;68.97;99683.92;361930;109;1961991;-72
2021/03/07 02:55:47;;;;;;;10.99;4.87;;;;;;;-3.55;68.98;99679.48;332638;109;2635001;-70
2021/03/07 02:56:55;;;;;;;13.80;6.21;;;;;;;-3.55;68.96;99684.76;346665;111;2304037;-69
2021/03/07 02:58:07;;;;;;;10.67;5.24;;;;;;;-3.54;68.97;99681.18;362550;109;1961898;-70
2021/03/07 02:59:14;;;;;;;10.40;4.77;;;;;;;-3.55;68.84;99671.55;337151;111;2516905;-70
2021/03/07 03:00:21;;;;;;;11.41;4.46;;;;;;;-3.54;68.77;99671.45;361239;109;1964000;-69
2021/03/07 03:01:29;;;;;;;9.63;4.22;;;;;;;-3.57;68.81;99679.61;330748;109;1966338;-71
2021/03/07 03:02:38;;;;;;;10.77;4.86;;;;;;;-3.56;68.81;99676.00;347308;109;2860013;-71
2021/03/07 03:03:49;;;;;;;11.38;4.95;;;;;;;-3.57;68.89;99676.14;355412;109;2880050;-71
2021/03/07 03:04:57;;;;;;;10.29;5.04;;;;;;;-3.56;68.68;99669.89;323309;109;2132599;-70
2021/03/07 03:06:05;;;;;;;12.84;5.26;;;;;;;-3.54;68.67;99670.63;354859;109;2887982;-71
2021/03/07 03:07:11;;;;;;;10.63;4.91;;;;;;;-3.55;68.71;99668.91;362156;109;1961938;-71
2021/03/07 03:08:17;;;;;;;9.97;5.28;;;;;;;-3.54;68.64;99668.81;321495;109;2170276;-70
2021/03/07 03:09:24;;;;;;;11.09;5.15;;;;;;;-3.55;68.48;99669.78;364217;109;1961984;-71
2021/03/07 03:10:32;;;;;;;7.91;3.36;;;;;;;-3.56;68.79;99664.61;361894;109;1962003;-71
2021/03/07 03:11:40;;;;;;;11.76;5.59;;;;;;;-3.56;68.62;99662.80;363466;109;1961981;-68
2021/03/07 03:12:47;;;;;;;10.09;4.62;;;;;;;-3.56;68.46;99662.80;364594;109;1960697;-71
2021/03/07 03:13:53;;;;;;;10.87;5.48;;;;;;;-3.53;68.46;99661.73;364087;107;1963032;-70
2021/03/07 03:14:59;;;;;;;7.69;4.38;;;;;;;-3.53;68.37;99669.65;356034;109;1962873;-70
2021/03/07 03:16:06;;;;;;;11.20;5.84;;;;;;;-3.52;68.31;99642.27;358722;111;1961906;-71
2021/03/07 03:17:14;;;;;;;9.88;5.03;;;;;;;-3.51;68.13;99651.90;349453;109;2245998;-71
2021/03/07 03:18:22;;;;;;;9.14;4.92;;;;;;;-3.53;68.17;99648.53;364213;109;1964383;-70
2021/03/07 03:19:34;;;;;;;10.51;5.18;;;;;;;-3.54;68.23;99652.14;360704;109;1962062;-71
2021/03/07 03:20:41;;;;;;;8.94;4.58;;;;;;;-3.49;67.99;99657.91;314767;111;2137527;-70
2021/03/07 03:21:47;;;;;;;8.71;4.46;;;;;;;-3.49;67.88;99644.71;360471;111;1961968;-70
2021/03/07 03:22:53;;;;;;;9.19;4.68;;;;;;;-3.48;67.86;99651.66;345201;113;2289865;-71
2021/03/07 03:23:59;;;;;;;9.91;4.65;;;;;;;-3.46;67.70;99639.19;341550;115;1962048;-71
2021/03/07 03:25:07;;;;;;;9.68;4.81;;;;;;;-3.48;67.75;99630.53;349564;111;1962075;-71
2021/03/07 03:26:16;;;;;;;8.47;4.27;;;;;;;-3.46;67.73;99635.71;359029;111;1960804;-71
2021/03/07 03:27:22;;;;;;;12.84;5.19;;;;;;;-3.47;67.72;99628.73;359796;113;1961958;-72
2021/03/07 03:28:29;;;;;;;9.62;4.76;;;;;;;-3.47;67.68;99626.92;359093;112;1964365;-71
2021/03/07 03:29:34;;;;;;;12.71;5.36;;;;;;;-3.49;67.70;99628.87;314571;112;2160884;-71
2021/03/07 03:30:41;;;;;;;10.11;4.72;;;;;;;-3.47;67.66;99623.45;356546;112;1961857;-72
2021/03/07 03:31:46;;;;;;;10.84;5.33;;;;;;;-3.49;67.62;99613.02;358788;111;1961948;-71
2021/03/07 03:32:52;;;;;;;8.82;3.72;;;;;;;-3.46;67.60;99625.15;330349;112;2498020;-70
2021/03/07 03:33:59;;;;;;;9.23;4.60;;;;;;;-3.44;67.55;99616.16;356867;111;1960724;-72
2021/03/07 03:35:08;;;;;;;11.52;5.56;;;;;;;-3.40;67.41;99608.83;358433;111;1961800;-71
2021/03/07 03:36:15;;;;;;;10.98;4.41;;;;;;;-3.39;67.28;99616.61;332197;112;2875910;-72
2021/03/07 03:37:20;;;;;;;10.50;4.32;;;;;;;-3.38;67.13;99577.86;343644;113;1961935;-72
2021/03/07 03:38:32;;;;;;;6.76;3.26;;;;;;;-3.34;67.04;99605.70;350512;114;1961861;-72
2021/03/07 03:39:39;;;;;;;8.59;4.56;;;;;;;-3.32;66.94;99601.14;311841;114;2758917;-71
2021/03/07 03:40:51;;;;;;;8.03;4.05;;;;;;;-3.34;66.97;99603.89;358341;111;1960750;-72
2021/03/07 03:42:03;;;;;;;8.32;4.46;;;;;;;-3.34;67.00;99601.25;327427;111;2619100;-71
2021/03/07 03:43:10;;;;;;;7.24;3.77;;;;;;;-3.32;66.83;99599.34;357581;111;1960724;-71
2021/03/07 03:44:22;;;;;;;11.83;5.86;;;;;;;-3.29;66.74;99590.34;325510;114;1961046;-71
2021/03/07 03:45:30;;;;;;;12.16;5.58;;;;;;;-3.32;66.75;99601.14;353888;114;1963006;-71
2021/03/07 03:46:40;;;;;;;9.31;4.17;;;;;;;-3.28;66.70;99591.17;356208;114;1968955;-71
2021/03/07 03:47:53;;;;;;;10.47;4.59;;;;;;;-3.28;66.62;99593.81;358736;111;1961940;-71
2021/03/07 03:49:03;;;;;;;9.03;4.18;;;;;;;-3.29;66.68;99592.98;363588;104;1960687;-71
2021/03/07 03:50:11;;;;;;;11.71;4.79;;;;;;;-3.27;66.53;99577.02;374792;106;1962077;-71
2021/03/07 03:51:19;;;;;;;8.78;4.84;;;;;;;-3.28;66.59;99585.89;341103;106;1991147;-71
2021/03/07 03:52:30;;;;;;;9.29;5.07;;;;;;;-3.28;66.60;99576.19;330157;106;2844769;-71
2021/03/07 03:53:37;;;;;;;11.31;4.86;;;;;;;-3.31;66.54;99576.41;331352;106;2147353;-71
2021/03/07 03:54:47;;;;;;;10.58;4.68;;;;;;;-3.33;66.76;99563.33;366460;106;2860031;-71
2021/03/07 03:55:56;;;;;;;11.96;5.80;;;;;;;-3.29;66.66;99573.66;344570;106;2549953;-71
2021/03/07 03:57:02;;;;;;;8.28;4.82;;;;;;;-3.30;66.63;99578.10;373628;106;1961993;-71
2021/03/07 03:58:11;;;;;;;11.67;5.36;;;;;;;-3.26;66.58;99568.96;372715;106;1962042;-71
2021/03/07 03:59:20;;;;;;;8.97;3.70;;;;;;;-3.27;66.60;99579.66;346127;107;1961931;-70
2021/03/07 04:00:27;;;;;;;8.15;4.16;;;;;;;-3.23;66.39;99570.52;356419;106;2353054;-71
2021/03/07 04:01:35;;;;;;;9.47;3.98;;;;;;;-3.24;66.39;99555.64;372163;106;1962021;-71
2021/03/07 04:02:43;;;;;;;9.56;5.10;;;;;;;-3.24;66.32;99561.77;373213;106;1962897;-71
2021/03/07 04:03:51;;;;;;;10.33;5.51;;;;;;;-3.23;66.38;99560.79;351208;106;2439083;-71
2021/03/07 04:04:58;;;;;;;10.06;5.13;;;;;;;-3.22;66.32;99556.38;377157;106;1961996;-71
2021/03/07 04:06:04;;;;;;;10.81;5.08;;;;;;;-3.23;66.26;99550.22;353040;106;1960744;-71
2021/03/07 04:07:09;;;;;;;10.60;5.29;;;;;;;-3.23;66.29;99549.39;372519;106;1960651;-71
2021/03/07 04:08:18;;;;;;;12.98;6.02;;;;;;;-3.25;66.40;99538.96;374936;106;1962002;-71
2021/03/07 04:09:23;;;;;;;10.28;4.56;;;;;;;-3.25;66.42;99544.25;373639;106;1961989;-71
2021/03/07 04:10:31;;;;;;;10.03;5.12;;;;;;;-3.24;66.40;99548.55;359812;106;1966019;-71
2021/03/07 04:11:36;;;;;;;13.71;5.22;;;;;;;-3.26;66.48;99536.43;375243;106;1961988;-71
2021/03/07 04:12:46;;;;;;;10.60;5.17;;;;;;;-3.25;66.45;99535.48;343372;106;2203885;-71
2021/03/07 04:13:54;;;;;;;11.33;5.76;;;;;;;-3.23;66.42;99530.90;374232;106;1961938;-72
2021/03/07 04:15:01;;;;;;;12.01;6.28;;;;;;;-3.25;66.44;99520.47;372822;106;1962020;-71
2021/03/07 04:16:08;;;;;;;10.77;5.40;;;;;;;-3.26;66.56;99520.58;353864;106;1961991;-71
2021/03/07 04:17:18;;;;;;;13.68;7.13;;;;;;;-3.24;66.43;99518.66;374817;106;1961991;-71
2021/03/07 04:18:27;;;;;;;10.81;4.82;;;;;;;-3.23;66.38;99523.81;371186;106;1962932;-71
2021/03/07 04:19:35;;;;;;;10.70;5.21;;;;;;;-3.24;66.42;99523.95;373538;106;1963847;-71
2021/03/07 04:20:44;;;;;;;11.46;5.90;;;;;;;-3.26;66.52;99524.05;373185;106;1962884;-70
2021/03/07 04:21:51;;;;;;;11.96;5.78;;;;;;;-3.25;66.50;99517.00;373464;106;1962017;-70
2021/03/07 04:22:57;;;;;;;13.06;6.08;;;;;;;-3.24;66.49;99505.45;359742;110;1961915;-71
2021/03/07 04:24:02;;;;;;;11.53;6.25;;;;;;;-3.22;66.48;99499.09;361473;106;1962028;-71
2021/03/07 04:25:10;;;;;;;13.69;6.53;;;;;;;-3.21;66.34;99502.56;373785;108;1962025;-71
2021/03/07 04:26:17;;;;;;;13.13;5.46;;;;;;;-3.23;66.35;99500.03;375027;106;1964040;-70
2021/03/07 04:27:24;;;;;;;10.51;5.17;;;;;;;-3.24;66.43;99493.08;373235;107;1962981;-70
2021/03/07 04:28:30;;;;;;;12.44;6.25;;;;;;;-3.25;66.58;99495.86;349584;106;1961999;-70
2021/03/07 04:29:37;;;;;;;12.54;5.82;;;;;;;-3.26;66.64;99494.16;375272;106;1961821;-70
2021/03/07 04:30:43;;;;;;;13.56;5.96;;;;;;;-3.26;66.64;99488.88;359796;108;1960888;-70
2021/03/07 04:31:49;;;;;;;11.87;5.41;;;;;;;-3.24;66.56;99485.16;376566;106;1962758;-70
2021/03/07 04:32:56;;;;;;;12.33;6.04;;;;;;;-3.24;66.53;99498.36;372008;108;1961934;-71
2021/03/07 04:34:13;;;;;;;10.24;5.21;;;;;;;-3.25;66.65;99485.30;374221;106;1962026;-71
2021/03/07 04:35:19;;;;;;;10.76;5.04;;;;;;;-3.25;66.64;99482.66;371517;108;1962075;-70
2021/03/07 04:36:25;;;;;;;15.63;6.54;;;;;;;-3.25;66.66;99490.58;368585;106;1965047;-71
2021/03/07 04:37:31;;;;;;;10.33;5.58;;;;;;;-3.26;66.90;99483.60;371842;107;1962009;-71
2021/03/07 04:38:38;;;;;;;11.07;5.36;;;;;;;-3.21;66.67;99486.72;359799;106;2894413;-72
2021/03/07 04:39:44;;;;;;;10.55;5.71;;;;;;;-3.19;66.62;99471.59;366729;108;1961999;-71
2021/03/07 04:40:52;;;;;;;12.50;6.73;;;;;;;-3.18;66.51;99484.66;320794;108;2218100;-71
2021/03/07 04:41:58;;;;;;;11.89;4.96;;;;;;;-3.16;66.54;99471.34;367969;110;1961957;-70
2021/03/07 04:43:07;;;;;;;16.61;7.33;;;;;;;-3.14;66.39;99482.63;331988;109;2044407;-70
2021/03/07 04:44:13;;;;;;;14.74;7.16;;;;;;;-3.16;66.40;99474.81;365856;108;1962081;-70
2021/03/07 04:45:19;;;;;;;11.74;6.14;;;;;;;-3.13;66.44;99471.92;354951;110;2254904;-71
2021/03/07 04:46:27;;;;;;;15.21;6.83;;;;;;;-3.10;66.36;99476.98;366622;109;1963970;-70
2021/03/07 04:47:33;;;;;;;13.53;6.35;;;;;;;-3.14;66.44;99472.90;341893;110;1961963;-71
2021/03/07 04:48:39;;;;;;;17.26;8.38;;;;;;;-3.11;66.43;99477.09;365950;110;1961914;-71
2021/03/07 04:49:55;;;;;;;15.31;7.61;;;;;;;-3.10;66.43;99482.27;365325;108;1961937;-71
2021/03/07 04:51:01;;;;;;;16.39;6.59;;;;;;;-3.13;66.60;99485.13;366610;107;1961965;-72
2021/03/07 04:52:08;;;;;;;12.41;5.57;;;;;;;-3.07;66.48;99469.75;367378;107;1959652;-71
2021/03/07 04:53:14;;;;;;;14.01;7.15;;;;;;;-3.04;66.38;99470.36;367465;108;1963995;-71
2021/03/07 04:54:19;;;;;;;14.09;6.95;;;;;;;-3.02;66.27;99464.94;345710;108;1961980;-71
2021/03/07 04:55:24;;;;;;;11.72;4.99;;;;;;;-3.03;66.34;99473.84;368510;109;1963938;-71
2021/03/07 04:56:31;;;;;;;12.10;5.53;;;;;;;-3.00;66.26;99469.13;371071;107;1960719;-70
2021/03/07 04:57:36;;;;;;;12.06;5.95;;;;;;;-3.01;66.34;99469.28;355260;107;2287942;-70
2021/03/07 04:58:42;;;;;;;12.15;6.47;;;;;;;-2.97;66.32;99471.52;362901;107;1963975;-71
2021/03/07 04:59:47;;;;;;;15.38;7.06;;;;;;;-2.96;66.24;99454.72;366937;108;1961894;-71
2021/03/07 05:00:53;;;;;;;14.65;6.68;;;;;;;-3.04;66.29;99449.22;367124;108;1961971;-70
2021/03/07 05:01:59;;;;;;;14.66;6.76;;;;;;;-2.97;66.46;99457.48;331799;109;2236881;-70
2021/03/07 05:03:05;;;;;;;14.08;7.12;;;;;;;-2.94;66.33;99475.72;363949;109;1962013;-71
2021/03/07 05:04:11;;;;;;;14.58;7.24;;;;;;;-2.93;66.29;99454.47;368048;107;1961919;-71
2021/03/07 05:05:17;;;;;;;14.21;5.54;;;;;;;-2.90;66.27;99462.14;343501;109;2489854;-69
2021/03/07 05:06:25;;;;;;;14.17;7.03;;;;;;;-2.87;66.26;99467.17;366215;108;1962956;-70
2021/03/07 05:07:30;;;;;;;12.74;6.73;;;;;;;-2.87;66.18;99474.27;349632;108;2372973;-70